sensor_id;sensor_type;location;lat;lon;timestamp;pressure;altitude;pressure_sealevel;temperature;humidity
12594;BME280;6362;50.208;9.182;2023-08-21T00:00:34;100352.59;;;21.90;91.01
12594;BME280;6362;50.208;9.182;2023-08-21T00:02:59;100358.59;;;21.94;91.62
12594;BME280;6362;50.208;9.182;2023-08-21T00:05:25;100351.53;;;21.94;91.21
12594;BME280;6362;50.208;9.182;2023-08-21T00:07:50;100347.22;;;21.92;90.49
12594;BME280;6362;50.208;9.182;2023-08-21T00:10:16;100348.06;;;21.92;90.77
12594;BME280;6362;50.208;9.182;2023-08-21T00:12:42;100349.50;;;21.80;90.72
12594;BME280;6362;50.208;9.182;2023-08-21T00:15:08;100347.44;;;21.68;90.90
12594;BME280;6362;50.208;9.182;2023-08-21T00:17:35;100352.88;;;21.65;92.90
12594;BME280;6362;50.208;9.182;2023-08-21T00:20:00;100358.97;;;21.67;93.28
12594;BME280;6362;50.208;9.182;2023-08-21T00:22:26;100350.22;;;21.65;93.30
12594;BME280;6362;50.208;9.182;2023-08-21T00:24:52;100352.09;;;21.63;94.01
12594;BME280;6362;50.208;9.182;2023-08-21T00:27:17;100347.94;;;21.57;94.29
12594;BME280;6362;50.208;9.182;2023-08-21T00:29:43;100347.22;;;21.54;94.04
12594;BME280;6362;50.208;9.182;2023-08-21T00:32:08;100356.94;;;21.53;94.49
12594;BME280;6362;50.208;9.182;2023-08-21T00:34:34;100350.16;;;21.48;93.90
12594;BME280;6362;50.208;9.182;2023-08-21T00:36:59;100350.59;;;21.39;94.57
12594;BME280;6362;50.208;9.182;2023-08-21T00:39:25;100343.81;;;21.31;94.84
12594;BME280;6362;50.208;9.182;2023-08-21T00:41:50;100344.22;;;21.22;95.68
12594;BME280;6362;50.208;9.182;2023-08-21T00:44:15;100341.06;;;21.14;96.62
12594;BME280;6362;50.208;9.182;2023-08-21T00:46:41;100335.91;;;21.11;97.22
12594;BME280;6362;50.208;9.182;2023-08-21T00:49:06;100335.63;;;21.17;97.13
12594;BME280;6362;50.208;9.182;2023-08-21T00:51:32;100337.75;;;21.09;97.93
12594;BME280;6362;50.208;9.182;2023-08-21T00:53:58;100341.34;;;21.08;98.41
12594;BME280;6362;50.208;9.182;2023-08-21T00:56:23;100334.44;;;21.04;97.60
12594;BME280;6362;50.208;9.182;2023-08-21T00:58:49;100336.63;;;21.15;96.61
12594;BME280;6362;50.208;9.182;2023-08-21T01:01:17;100333.44;;;21.27;96.49
12594;BME280;6362;50.208;9.182;2023-08-21T01:03:43;100325.63;;;21.24;97.09
12594;BME280;6362;50.208;9.182;2023-08-21T01:06:09;100330.06;;;21.23;97.49
12594;BME280;6362;50.208;9.182;2023-08-21T01:15:02;100323.41;;;21.35;94.47
12594;BME280;6362;50.208;9.182;2023-08-21T01:17:19;100328.59;;;21.37;94.93
12594;BME280;6362;50.208;9.182;2023-08-21T01:19:48;100331.34;;;21.35;94.00
12594;BME280;6362;50.208;9.182;2023-08-21T01:22:14;100332.97;;;21.38;94.61
12594;BME280;6362;50.208;9.182;2023-08-21T01:24:40;100333.78;;;21.40;93.27
12594;BME280;6362;50.208;9.182;2023-08-21T01:27:05;100335.34;;;21.44;92.99
12594;BME280;6362;50.208;9.182;2023-08-21T01:29:31;100327.75;;;21.36;93.90
12594;BME280;6362;50.208;9.182;2023-08-21T01:32:02;100331.34;;;21.35;93.99
12594;BME280;6362;50.208;9.182;2023-08-21T01:34:31;100344.03;;;21.27;94.59
12594;BME280;6362;50.208;9.182;2023-08-21T01:36:59;100343.28;;;21.23;94.93
12594;BME280;6362;50.208;9.182;2023-08-21T01:39:25;100343.66;;;21.16;94.93
12594;BME280;6362;50.208;9.182;2023-08-21T01:41:51;100350.94;;;21.11;96.08
12594;BME280;6362;50.208;9.182;2023-08-21T01:44:16;100354.56;;;21.08;96.50
12594;BME280;6362;50.208;9.182;2023-08-21T01:46:41;100358.00;;;21.10;96.77
12594;BME280;6362;50.208;9.182;2023-08-21T01:49:07;100351.06;;;21.07;96.82
12594;BME280;6362;50.208;9.182;2023-08-21T01:51:32;100354.09;;;20.98;96.34
12594;BME280;6362;50.208;9.182;2023-08-21T01:53:58;100353.03;;;21.02;96.73
12594;BME280;6362;50.208;9.182;2023-08-21T01:56:23;100356.09;;;20.93;96.83
12594;BME280;6362;50.208;9.182;2023-08-21T01:58:48;100361.41;;;20.93;98.51
12594;BME280;6362;50.208;9.182;2023-08-21T02:01:14;100355.44;;;20.88;97.66
12594;BME280;6362;50.208;9.182;2023-08-21T02:03:40;100355.63;;;20.83;98.06
12594;BME280;6362;50.208;9.182;2023-08-21T02:06:06;100352.53;;;20.74;98.18
12594;BME280;6362;50.208;9.182;2023-08-21T02:08:32;100359.44;;;20.76;98.43
12594;BME280;6362;50.208;9.182;2023-08-21T02:10:58;100362.44;;;20.69;99.07
12594;BME280;6362;50.208;9.182;2023-08-21T02:13:23;100360.38;;;20.55;99.55
12594;BME280;6362;50.208;9.182;2023-08-21T02:15:48;100362.47;;;20.47;100.00
12594;BME280;6362;50.208;9.182;2023-08-21T02:18:14;100359.25;;;20.39;100.00
12594;BME280;6362;50.208;9.182;2023-08-21T02:20:40;100353.91;;;20.40;100.00
12594;BME280;6362;50.208;9.182;2023-08-21T02:23:05;100363.72;;;20.37;100.00
12594;BME280;6362;50.208;9.182;2023-08-21T02:25:31;100366.03;;;20.46;100.00
12594;BME280;6362;50.208;9.182;2023-08-21T02:27:57;100364.72;;;20.56;100.00
12594;BME280;6362;50.208;9.182;2023-08-21T02:30:23;100365.53;;;20.58;100.00
12594;BME280;6362;50.208;9.182;2023-08-21T02:32:52;100367.38;;;20.56;100.00
12594;BME280;6362;50.208;9.182;2023-08-21T02:35:18;100361.09;;;20.59;100.00
12594;BME280;6362;50.208;9.182;2023-08-21T02:37:43;100366.00;;;20.68;100.00
12594;BME280;6362;50.208;9.182;2023-08-21T02:40:09;100360.16;;;20.60;100.00
12594;BME280;6362;50.208;9.182;2023-08-21T02:42:34;100359.97;;;20.64;100.00
12594;BME280;6362;50.208;9.182;2023-08-21T02:45:00;100364.09;;;20.71;100.00
12594;BME280;6362;50.208;9.182;2023-08-21T02:47:29;100367.25;;;20.79;99.99
12594;BME280;6362;50.208;9.182;2023-08-21T02:49:55;100370.94;;;20.75;99.65
12594;BME280;6362;50.208;9.182;2023-08-21T02:52:20;100372.94;;;20.70;99.44
12594;BME280;6362;50.208;9.182;2023-08-21T02:54:45;100369.56;;;20.67;99.73
12594;BME280;6362;50.208;9.182;2023-08-21T02:57:11;100373.19;;;20.64;100.00
12594;BME280;6362;50.208;9.182;2023-08-21T02:59:36;100371.34;;;20.66;100.00
12594;BME280;6362;50.208;9.182;2023-08-21T03:02:02;100372.16;;;20.68;99.75
12594;BME280;6362;50.208;9.182;2023-08-21T03:04:27;100368.66;;;20.68;99.22
12594;BME280;6362;50.208;9.182;2023-08-21T03:06:53;100368.16;;;20.58;99.17
12594;BME280;6362;50.208;9.182;2023-08-21T03:09:18;100370.13;;;20.53;100.00
12594;BME280;6362;50.208;9.182;2023-08-21T03:11:43;100372.84;;;20.51;100.00
12594;BME280;6362;50.208;9.182;2023-08-21T03:14:09;100367.56;;;20.51;100.00
12594;BME280;6362;50.208;9.182;2023-08-21T03:16:34;100374.56;;;20.52;99.86
12594;BME280;6362;50.208;9.182;2023-08-21T03:19:00;100373.69;;;20.52;100.00
12594;BME280;6362;50.208;9.182;2023-08-21T03:21:26;100368.13;;;20.38;100.00
12594;BME280;6362;50.208;9.182;2023-08-21T03:23:55;100367.22;;;20.37;100.00
12594;BME280;6362;50.208;9.182;2023-08-21T03:26:21;100369.19;;;20.32;100.00
12594;BME280;6362;50.208;9.182;2023-08-21T03:28:46;100367.66;;;20.26;100.00
12594;BME280;6362;50.208;9.182;2023-08-21T03:31:12;100367.56;;;20.29;100.00
12594;BME280;6362;50.208;9.182;2023-08-21T03:33:37;100365.03;;;20.26;100.00
12594;BME280;6362;50.208;9.182;2023-08-21T03:36:03;100358.94;;;20.24;100.00
12594;BME280;6362;50.208;9.182;2023-08-21T03:38:28;100369.75;;;20.18;100.00
12594;BME280;6362;50.208;9.182;2023-08-21T03:40:53;100367.22;;;20.15;100.00
12594;BME280;6362;50.208;9.182;2023-08-21T03:43:19;100361.31;;;20.10;100.00
12594;BME280;6362;50.208;9.182;2023-08-21T03:45:44;100370.19;;;20.08;100.00
12594;BME280;6362;50.208;9.182;2023-08-21T03:48:10;100375.41;;;20.09;100.00
12594;BME280;6362;50.208;9.182;2023-08-21T03:50:35;100370.19;;;20.08;100.00
12594;BME280;6362;50.208;9.182;2023-08-21T03:53:01;100374.44;;;20.12;100.00
12594;BME280;6362;50.208;9.182;2023-08-21T03:55:26;100368.53;;;20.05;100.00
12594;BME280;6362;50.208;9.182;2023-08-21T03:57:52;100372.97;;;20.04;100.00
12594;BME280;6362;50.208;9.182;2023-08-21T04:00:17;100371.22;;;20.25;100.00
12594;BME280;6362;50.208;9.182;2023-08-21T04:02:43;100377.59;;;20.21;100.00
12594;BME280;6362;50.208;9.182;2023-08-21T04:05:08;100374.28;;;20.15;100.00
12594;BME280;6362;50.208;9.182;2023-08-21T04:07:35;100372.75;;;20.09;100.00
12594;BME280;6362;50.208;9.182;2023-08-21T04:10:01;100377.06;;;20.12;100.00
12594;BME280;6362;50.208;9.182;2023-08-21T04:12:26;100388.31;;;20.17;100.00
12594;BME280;6362;50.208;9.182;2023-08-21T04:14:52;100376.69;;;20.21;100.00
12594;BME280;6362;50.208;9.182;2023-08-21T04:17:21;100385.72;;;20.15;100.00
12594;BME280;6362;50.208;9.182;2023-08-21T04:19:47;100391.00;;;20.15;100.00
12594;BME280;6362;50.208;9.182;2023-08-21T04:22:12;100385.09;;;20.09;100.00
12594;BME280;6362;50.208;9.182;2023-08-21T04:24:39;100380.69;;;20.09;100.00
12594;BME280;6362;50.208;9.182;2023-08-21T04:27:04;100384.25;;;20.08;100.00
12594;BME280;6362;50.208;9.182;2023-08-21T04:29:30;100385.97;;;20.09;100.00
12594;BME280;6362;50.208;9.182;2023-08-21T04:31:55;100396.66;;;20.06;100.00
12594;BME280;6362;50.208;9.182;2023-08-21T04:34:21;100392.09;;;20.10;100.00
12594;BME280;6362;50.208;9.182;2023-08-21T04:36:46;100384.38;;;20.05;100.00
12594;BME280;6362;50.208;9.182;2023-08-21T04:39:12;100397.78;;;20.00;100.00
12594;BME280;6362;50.208;9.182;2023-08-21T04:41:39;100395.91;;;20.02;100.00
12594;BME280;6362;50.208;9.182;2023-08-21T04:44:05;100392.78;;;20.15;100.00
12594;BME280;6362;50.208;9.182;2023-08-21T04:46:30;100392.75;;;20.16;100.00
12594;BME280;6362;50.208;9.182;2023-08-21T04:48:55;100392.06;;;20.11;100.00
12594;BME280;6362;50.208;9.182;2023-08-21T04:51:21;100384.31;;;20.07;100.00
12594;BME280;6362;50.208;9.182;2023-08-21T04:53:46;100395.06;;;20.02;100.00
12594;BME280;6362;50.208;9.182;2023-08-21T04:56:12;100399.56;;;20.00;100.00
12594;BME280;6362;50.208;9.182;2023-08-21T04:58:37;100394.31;;;19.98;100.00
12594;BME280;6362;50.208;9.182;2023-08-21T05:01:04;100400.47;;;19.99;100.00
12594;BME280;6362;50.208;9.182;2023-08-21T05:03:30;100399.41;;;20.03;100.00
12594;BME280;6362;50.208;9.182;2023-08-21T05:05:56;100402.06;;;20.03;100.00
12594;BME280;6362;50.208;9.182;2023-08-21T05:08:25;100407.16;;;20.08;100.00
12594;BME280;6362;50.208;9.182;2023-08-21T05:10:58;100397.44;;;20.08;100.00
12594;BME280;6362;50.208;9.182;2023-08-21T05:13:24;100399.25;;;20.08;100.00
12594;BME280;6362;50.208;9.182;2023-08-21T05:15:57;100404.59;;;20.06;100.00
12594;BME280;6362;50.208;9.182;2023-08-21T05:18:24;100407.94;;;20.10;100.00
12594;BME280;6362;50.208;9.182;2023-08-21T05:20:50;100398.88;;;20.17;100.00
12594;BME280;6362;50.208;9.182;2023-08-21T05:23:16;100406.41;;;20.26;100.00
12594;BME280;6362;50.208;9.182;2023-08-21T05:25:43;100402.06;;;20.25;100.00
12594;BME280;6362;50.208;9.182;2023-08-21T05:28:08;100407.16;;;20.29;100.00
12594;BME280;6362;50.208;9.182;2023-08-21T05:30:35;100410.31;;;20.39;100.00
12594;BME280;6362;50.208;9.182;2023-08-21T05:33:02;100422.50;;;20.43;100.00
12594;BME280;6362;50.208;9.182;2023-08-21T05:35:27;100414.38;;;20.48;100.00
12594;BME280;6362;50.208;9.182;2023-08-21T05:37:53;100415.03;;;20.54;100.00
12594;BME280;6362;50.208;9.182;2023-08-21T05:40:18;100416.03;;;20.72;99.19
12594;BME280;6362;50.208;9.182;2023-08-21T05:42:44;100418.94;;;20.87;98.54
12594;BME280;6362;50.208;9.182;2023-08-21T05:45:10;100421.94;;;20.99;97.80
12594;BME280;6362;50.208;9.182;2023-08-21T05:47:35;100425.66;;;21.16;97.03
12594;BME280;6362;50.208;9.182;2023-08-21T05:50:01;100421.94;;;21.40;93.48
12594;BME280;6362;50.208;9.182;2023-08-21T05:52:26;100421.31;;;21.54;92.40
12594;BME280;6362;50.208;9.182;2023-08-21T05:54:52;100427.28;;;21.59;91.65
12594;BME280;6362;50.208;9.182;2023-08-21T05:57:17;100428.13;;;21.59;92.40
12594;BME280;6362;50.208;9.182;2023-08-21T05:59:44;100422.06;;;21.76;91.55
12594;BME280;6362;50.208;9.182;2023-08-21T06:02:10;100420.72;;;21.86;91.23
12594;BME280;6362;50.208;9.182;2023-08-21T06:04:37;100424.38;;;22.03;89.92
12594;BME280;6362;50.208;9.182;2023-08-21T06:07:03;100425.25;;;22.22;87.75
12594;BME280;6362;50.208;9.182;2023-08-21T06:09:29;100424.50;;;22.37;86.85
12594;BME280;6362;50.208;9.182;2023-08-21T06:11:55;100423.63;;;22.56;84.54
12594;BME280;6362;50.208;9.182;2023-08-21T06:14:20;100423.31;;;22.62;83.93
12594;BME280;6362;50.208;9.182;2023-08-21T06:16:54;100422.25;;;22.66;84.42
12594;BME280;6362;50.208;9.182;2023-08-21T06:19:19;100425.13;;;22.79;84.77
12594;BME280;6362;50.208;9.182;2023-08-21T06:21:45;100428.91;;;22.92;83.22
12594;BME280;6362;50.208;9.182;2023-08-21T06:24:10;100432.25;;;23.13;82.77
12594;BME280;6362;50.208;9.182;2023-08-21T06:26:36;100432.34;;;23.29;81.46
12594;BME280;6362;50.208;9.182;2023-08-21T06:29:01;100438.03;;;23.38;80.16
12594;BME280;6362;50.208;9.182;2023-08-21T06:31:26;100432.72;;;23.38;79.61
12594;BME280;6362;50.208;9.182;2023-08-21T06:33:52;100439.41;;;23.45;79.16
12594;BME280;6362;50.208;9.182;2023-08-21T06:36:17;100439.56;;;23.60;78.10
12594;BME280;6362;50.208;9.182;2023-08-21T06:38:43;100438.94;;;23.55;77.93
12594;BME280;6362;50.208;9.182;2023-08-21T06:41:09;100437.03;;;23.57;77.85
12594;BME280;6362;50.208;9.182;2023-08-21T06:43:34;100436.50;;;23.67;77.61
12594;BME280;6362;50.208;9.182;2023-08-21T06:46:01;100436.78;;;23.79;77.30
12594;BME280;6362;50.208;9.182;2023-08-21T06:48:26;100441.28;;;23.94;76.73
12594;BME280;6362;50.208;9.182;2023-08-21T06:50:52;100441.19;;;24.11;76.08
12594;BME280;6362;50.208;9.182;2023-08-21T06:53:17;100437.59;;;24.28;73.45
12594;BME280;6362;50.208;9.182;2023-08-21T06:55:45;100439.75;;;24.37;72.35
12594;BME280;6362;50.208;9.182;2023-08-21T06:58:11;100436.91;;;24.40;73.39
12594;BME280;6362;50.208;9.182;2023-08-21T07:00:36;100435.81;;;24.44;73.35
12594;BME280;6362;50.208;9.182;2023-08-21T07:03:01;100434.41;;;24.53;72.68
12594;BME280;6362;50.208;9.182;2023-08-21T07:05:28;100437.25;;;24.66;72.54
12594;BME280;6362;50.208;9.182;2023-08-21T07:07:54;100437.75;;;24.72;72.29
12594;BME280;6362;50.208;9.182;2023-08-21T07:10:20;100435.97;;;24.87;72.16
12594;BME280;6362;50.208;9.182;2023-08-21T07:12:46;100440.44;;;24.87;71.96
12594;BME280;6362;50.208;9.182;2023-08-21T07:15:11;100444.97;;;25.00;71.25
12594;BME280;6362;50.208;9.182;2023-08-21T07:17:37;100442.72;;;25.09;70.56
12594;BME280;6362;50.208;9.182;2023-08-21T07:20:03;100442.75;;;25.23;70.51
12594;BME280;6362;50.208;9.182;2023-08-21T07:22:29;100443.81;;;25.35;69.58
12594;BME280;6362;50.208;9.182;2023-08-21T07:24:55;100432.41;;;25.47;68.97
12594;BME280;6362;50.208;9.182;2023-08-21T07:27:20;100433.38;;;25.60;69.26
12594;BME280;6362;50.208;9.182;2023-08-21T07:29:46;100435.88;;;25.77;68.35
12594;BME280;6362;50.208;9.182;2023-08-21T07:32:11;100434.25;;;25.89;68.52
12594;BME280;6362;50.208;9.182;2023-08-21T07:34:37;100436.41;;;25.97;68.36
12594;BME280;6362;50.208;9.182;2023-08-21T07:37:02;100425.53;;;26.14;65.93
12594;BME280;6362;50.208;9.182;2023-08-21T07:39:28;100434.94;;;26.20;66.29
12594;BME280;6362;50.208;9.182;2023-08-21T07:41:53;100430.19;;;26.25;65.61
12594;BME280;6362;50.208;9.182;2023-08-21T07:44:19;100429.09;;;26.42;66.24
12594;BME280;6362;50.208;9.182;2023-08-21T07:46:44;100423.28;;;26.49;66.65
12594;BME280;6362;50.208;9.182;2023-08-21T07:49:10;100431.88;;;26.67;66.63
12594;BME280;6362;50.208;9.182;2023-08-21T07:51:36;100432.75;;;26.68;65.95
12594;BME280;6362;50.208;9.182;2023-08-21T07:54:01;100433.63;;;26.81;64.63
12594;BME280;6362;50.208;9.182;2023-08-21T07:56:27;100437.13;;;26.81;64.78
12594;BME280;6362;50.208;9.182;2023-08-21T07:58:52;100428.31;;;26.94;64.62
12594;BME280;6362;50.208;9.182;2023-08-21T08:01:18;100429.19;;;26.94;63.98
12594;BME280;6362;50.208;9.182;2023-08-21T08:03:45;100433.59;;;27.08;63.49
12594;BME280;6362;50.208;9.182;2023-08-21T08:06:10;100429.88;;;27.23;63.05
12594;BME280;6362;50.208;9.182;2023-08-21T08:08:36;100430.84;;;27.35;64.21
12594;BME280;6362;50.208;9.182;2023-08-21T08:11:04;100424.44;;;27.50;63.33
12594;BME280;6362;50.208;9.182;2023-08-21T08:13:31;100430.41;;;27.67;62.74
12594;BME280;6362;50.208;9.182;2023-08-21T08:15:57;100430.88;;;27.73;63.11
12594;BME280;6362;50.208;9.182;2023-08-21T08:18:22;100432.66;;;27.85;64.45
12594;BME280;6362;50.208;9.182;2023-08-21T08:20:48;100431.16;;;27.94;62.42
12594;BME280;6362;50.208;9.182;2023-08-21T08:23:13;100431.22;;;28.05;62.00
12594;BME280;6362;50.208;9.182;2023-08-21T08:25:39;100428.75;;;28.02;62.03
12594;BME280;6362;50.208;9.182;2023-08-21T08:28:05;100426.25;;;28.25;62.37
12594;BME280;6362;50.208;9.182;2023-08-21T08:30:30;100434.88;;;28.41;62.59
12594;BME280;6362;50.208;9.182;2023-08-21T08:32:56;100426.31;;;28.49;59.55
12594;BME280;6362;50.208;9.182;2023-08-21T08:35:21;100422.53;;;28.51;58.82
12594;BME280;6362;50.208;9.182;2023-08-21T08:37:47;100427.53;;;28.56;58.50
12594;BME280;6362;50.208;9.182;2023-08-21T08:40:12;100421.53;;;28.28;58.91
12594;BME280;6362;50.208;9.182;2023-08-21T08:42:39;100418.09;;;28.39;60.37
12594;BME280;6362;50.208;9.182;2023-08-21T08:45:04;100423.97;;;28.44;59.86
12594;BME280;6362;50.208;9.182;2023-08-21T08:47:34;100419.31;;;28.70;59.35
12594;BME280;6362;50.208;9.182;2023-08-21T08:50:06;100412.94;;;28.84;59.38
12594;BME280;6362;50.208;9.182;2023-08-21T08:52:37;100413.84;;;28.96;58.24
12594;BME280;6362;50.208;9.182;2023-08-21T08:55:03;100409.03;;;29.12;58.00
12594;BME280;6362;50.208;9.182;2023-08-21T08:57:29;100420.59;;;29.24;59.28
12594;BME280;6362;50.208;9.182;2023-08-21T08:59:55;100408.22;;;29.45;55.60
12594;BME280;6362;50.208;9.182;2023-08-21T09:02:20;100408.25;;;29.56;56.31
12594;BME280;6362;50.208;9.182;2023-08-21T09:04:46;100409.94;;;29.68;56.26
12594;BME280;6362;50.208;9.182;2023-08-21T09:07:12;100407.25;;;29.91;55.87
12594;BME280;6362;50.208;9.182;2023-08-21T09:09:38;100402.13;;;29.99;55.18
12594;BME280;6362;50.208;9.182;2023-08-21T09:12:10;100399.66;;;30.18;55.25
12594;BME280;6362;50.208;9.182;2023-08-21T09:14:37;100398.81;;;30.18;54.17
12594;BME280;6362;50.208;9.182;2023-08-21T09:17:04;100394.91;;;30.22;55.59
12594;BME280;6362;50.208;9.182;2023-08-21T09:19:29;100396.88;;;30.52;56.90
12594;BME280;6362;50.208;9.182;2023-08-21T09:21:54;100399.50;;;30.74;52.41
12594;BME280;6362;50.208;9.182;2023-08-21T09:24:20;100394.19;;;30.84;52.98
12594;BME280;6362;50.208;9.182;2023-08-21T09:26:46;100381.94;;;30.91;54.33
12594;BME280;6362;50.208;9.182;2023-08-21T09:29:12;100388.84;;;31.05;54.62
12594;BME280;6362;50.208;9.182;2023-08-21T09:31:37;100391.63;;;31.24;50.98
12594;BME280;6362;50.208;9.182;2023-08-21T09:34:04;100386.38;;;31.23;50.80
12594;BME280;6362;50.208;9.182;2023-08-21T09:36:33;100379.09;;;31.14;51.02
12594;BME280;6362;50.208;9.182;2023-08-21T09:38:59;100387.69;;;31.08;52.83
12594;BME280;6362;50.208;9.182;2023-08-21T09:41:25;100390.59;;;30.95;51.75
12594;BME280;6362;50.208;9.182;2023-08-21T09:43:51;100397.47;;;31.09;51.26
12594;BME280;6362;50.208;9.182;2023-08-21T09:46:24;100391.44;;;31.16;50.89
12594;BME280;6362;50.208;9.182;2023-08-21T09:48:54;100394.44;;;31.23;51.80
12594;BME280;6362;50.208;9.182;2023-08-21T09:51:20;100390.16;;;31.32;51.22
12594;BME280;6362;50.208;9.182;2023-08-21T09:53:48;100394.53;;;31.63;50.98
12594;BME280;6362;50.208;9.182;2023-08-21T09:56:14;100392.09;;;31.91;49.67
12594;BME280;6362;50.208;9.182;2023-08-21T09:58:39;100383.97;;;32.21;50.03
12594;BME280;6362;50.208;9.182;2023-08-21T10:01:06;100388.13;;;32.54;48.29
12594;BME280;6362;50.208;9.182;2023-08-21T10:03:40;100381.00;;;32.82;47.15
12594;BME280;6362;50.208;9.182;2023-08-21T10:06:08;100382.41;;;33.16;48.97
12594;BME280;6362;50.208;9.182;2023-08-21T10:08:39;100381.88;;;33.40;45.50
12594;BME280;6362;50.208;9.182;2023-08-21T10:11:08;100383.63;;;33.68;43.85
12594;BME280;6362;50.208;9.182;2023-08-21T10:13:37;100389.22;;;33.57;43.20
12594;BME280;6362;50.208;9.182;2023-08-21T10:16:03;100377.53;;;33.29;43.15
12594;BME280;6362;50.208;9.182;2023-08-21T10:18:32;100375.75;;;33.10;44.65
12594;BME280;6362;50.208;9.182;2023-08-21T10:21:14;100371.09;;;33.40;43.41
12594;BME280;6362;50.208;9.182;2023-08-21T10:23:41;100374.00;;;33.66;43.72
12594;BME280;6362;50.208;9.182;2023-08-21T10:26:09;100374.19;;;33.82;41.02
12594;BME280;6362;50.208;9.182;2023-08-21T10:31:26;100365.88;;;34.21;39.12
12594;BME280;6362;50.208;9.182;2023-08-21T10:33:51;100369.78;;;34.08;37.92
12594;BME280;6362;50.208;9.182;2023-08-21T10:39:24;100365.72;;;33.30;40.72
12594;BME280;6362;50.208;9.182;2023-08-21T10:42:03;100367.91;;;33.17;40.29
12594;BME280;6362;50.208;9.182;2023-08-21T10:50:14;100369.44;;;33.29;39.78
12594;BME280;6362;50.208;9.182;2023-08-21T10:52:41;100365.44;;;33.33;37.71
12594;BME280;6362;50.208;9.182;2023-08-21T10:55:14;100366.97;;;32.98;38.31
12594;BME280;6362;50.208;9.182;2023-08-21T10:57:40;100364.25;;;33.08;40.28
12594;BME280;6362;50.208;9.182;2023-08-21T11:00:08;100359.50;;;33.29;40.08
12594;BME280;6362;50.208;9.182;2023-08-21T11:02:35;100357.19;;;33.34;39.45
12594;BME280;6362;50.208;9.182;2023-08-21T11:05:01;100359.16;;;33.79;41.02
12594;BME280;6362;50.208;9.182;2023-08-21T11:07:28;100353.34;;;34.20;42.37
12594;BME280;6362;50.208;9.182;2023-08-21T11:09:54;100353.63;;;34.62;38.43
12594;BME280;6362;50.208;9.182;2023-08-21T11:12:24;100355.25;;;34.55;38.03
12594;BME280;6362;50.208;9.182;2023-08-21T11:14:50;100354.28;;;34.64;37.81
12594;BME280;6362;50.208;9.182;2023-08-21T11:17:15;100354.44;;;34.09;38.35
12594;BME280;6362;50.208;9.182;2023-08-21T11:19:42;100351.22;;;34.23;38.79
12594;BME280;6362;50.208;9.182;2023-08-21T11:22:07;100351.84;;;34.53;40.58
12594;BME280;6362;50.208;9.182;2023-08-21T11:24:44;100350.41;;;34.84;36.01
12594;BME280;6362;50.208;9.182;2023-08-21T11:27:13;100352.84;;;34.34;36.35
12594;BME280;6362;50.208;9.182;2023-08-21T11:32:17;100352.06;;;33.78;37.53
12594;BME280;6362;50.208;9.182;2023-08-21T11:34:56;100349.59;;;34.30;38.30
12594;BME280;6362;50.208;9.182;2023-08-21T11:37:24;100356.28;;;34.80;34.80
12594;BME280;6362;50.208;9.182;2023-08-21T11:39:55;100351.41;;;35.01;33.31
12594;BME280;6362;50.208;9.182;2023-08-21T11:42:27;100350.25;;;35.38;33.48
12594;BME280;6362;50.208;9.182;2023-08-21T11:44:53;100350.22;;;35.64;33.17
12594;BME280;6362;50.208;9.182;2023-08-21T11:47:21;100344.78;;;36.06;30.92
12594;BME280;6362;50.208;9.182;2023-08-21T11:49:47;100348.19;;;36.25;28.62
12594;BME280;6362;50.208;9.182;2023-08-21T11:52:18;100344.66;;;36.24;29.82
12594;BME280;6362;50.208;9.182;2023-08-21T11:54:50;100344.38;;;36.43;28.68
12594;BME280;6362;50.208;9.182;2023-08-21T11:57:16;100346.75;;;36.71;30.54
12594;BME280;6362;50.208;9.182;2023-08-21T11:59:42;100352.31;;;36.94;30.80
12594;BME280;6362;50.208;9.182;2023-08-21T12:02:18;100355.63;;;37.29;27.83
12594;BME280;6362;50.208;9.182;2023-08-21T12:04:44;100344.25;;;37.33;28.61
12594;BME280;6362;50.208;9.182;2023-08-21T12:07:10;100344.25;;;37.33;27.79
12594;BME280;6362;50.208;9.182;2023-08-21T12:09:37;100346.03;;;37.57;27.14
12594;BME280;6362;50.208;9.182;2023-08-21T12:12:03;100347.41;;;37.53;26.46
12594;BME280;6362;50.208;9.182;2023-08-21T12:14:29;100340.59;;;37.65;28.78
12594;BME280;6362;50.208;9.182;2023-08-21T12:16:55;100343.22;;;37.42;32.04
12594;BME280;6362;50.208;9.182;2023-08-21T12:19:23;100343.91;;;37.44;28.18
12594;BME280;6362;50.208;9.182;2023-08-21T12:21:50;100337.63;;;37.83;27.67
12594;BME280;6362;50.208;9.182;2023-08-21T12:24:15;100343.75;;;37.30;27.47
12594;BME280;6362;50.208;9.182;2023-08-21T12:26:40;100347.34;;;37.22;28.80
12594;BME280;6362;50.208;9.182;2023-08-21T12:29:06;100344.25;;;37.25;28.72
12594;BME280;6362;50.208;9.182;2023-08-21T12:31:31;100340.94;;;37.62;28.67
12594;BME280;6362;50.208;9.182;2023-08-21T12:33:57;100336.78;;;37.83;28.15
12594;BME280;6362;50.208;9.182;2023-08-21T12:36:23;100341.31;;;37.90;28.63
12594;BME280;6362;50.208;9.182;2023-08-21T12:38:48;100330.28;;;37.92;26.43
12594;BME280;6362;50.208;9.182;2023-08-21T12:41:14;100332.25;;;37.98;26.94
12594;BME280;6362;50.208;9.182;2023-08-21T12:43:39;100320.16;;;37.77;26.54
12594;BME280;6362;50.208;9.182;2023-08-21T12:46:05;100319.38;;;38.00;26.76
12594;BME280;6362;50.208;9.182;2023-08-21T12:48:30;100315.75;;;38.08;28.83
12594;BME280;6362;50.208;9.182;2023-08-21T12:50:55;100310.53;;;38.29;26.81
12594;BME280;6362;50.208;9.182;2023-08-21T12:53:21;100315.03;;;38.37;27.47
12594;BME280;6362;50.208;9.182;2023-08-21T12:55:46;100315.31;;;37.96;26.70
12594;BME280;6362;50.208;9.182;2023-08-21T12:58:12;100305.44;;;37.72;27.97
12594;BME280;6362;50.208;9.182;2023-08-21T13:00:39;100307.78;;;37.83;28.84
12594;BME280;6362;50.208;9.182;2023-08-21T13:03:04;100299.75;;;38.13;29.68
12594;BME280;6362;50.208;9.182;2023-08-21T13:05:30;100298.13;;;38.49;27.41
12594;BME280;6362;50.208;9.182;2023-08-21T13:07:55;100300.41;;;38.61;26.97
12594;BME280;6362;50.208;9.182;2023-08-21T13:10:21;100299.91;;;38.57;28.03
12594;BME280;6362;50.208;9.182;2023-08-21T13:12:46;100304.03;;;38.91;28.46